Sun Village, California
Current Conditions -  °F | °C
As of 12:55 AM on Friday 24 Oct 2014 (Local Time) from KGXA Reporting Station
Clear Clear  
Wind Chill: 55°   Ceiling: Unl
Heat Index: 55°   Visibility: 10mi
Dew Point: 26°   Wind: 6mph
Humidity: 33%   Direction: 160°SSE
Pressure: 30.07"   Gusts: NA
Location:  34.4078°N, 117.88°W
Report Text: KGXA 240755Z AUTO 16005KT 10SM CLR 13/M03 A3007 RMK AO2 SLP151 T01291031 TSNO $
Loading
Personal Weather Stations






























Interactive Weather Map
Tropical Storm Tracking
New forecast layout! Learn more

10-Day Weather Forecast

Advertisements
Track Severe Weather on mobile